Redwood Falls Municipal Airport
KRWF : now visible

Airfield :











YOU CAN JOIN US ON...

 
LOGIN :

Register | Disclaimer

   EN    FR    IT 

 









Legend :    VFR   Marginal VFR   IFR   Intensive IFR   Very Intensive IFR
Visi :
Ceiling :
>= 8 km
>= 3000ft
5 to 8 km
1000 to 3000 ft
1500m to 5 km
500 to 1000 ft
800 to 1500m
200 to 500 ft
< 800m
< 200 ft
Symbols :   Thunderstorms  Fog  Heavy snow  Heavy precipitations  Wind > 20 kt






- Airport Elevation : 1024 ft


KRWF - Redwood Falls Municipal

CURRENT METAR :
  • 231453Z AUTO 29013KT 10SM CLR 03/M04 A2990 RMK AO2 SLP135 T00281044 53020

EXPIRED METARs :
  • 231353Z AUTO 28011KT 10SM CLR 01/M05 A2987 RMK AO2 SLP125 T00111050
  • 231253Z AUTO 25010KT 10SM CLR 01/M05 A2984 RMK AO2 SLP116 T00111050

TAF KRWF
Valid from the 23 at 12:00 until the 24 at 12:00 UTC


231139Z 2312/2412 27011KT P6SM SCT150
FM231600 30015G24KT P6SM SCT015
FM232200 30009KT P6SM SCT250
FM240900 33003KT P6SM BKN250



MET'MAP, your aeronautical weather chart ! - Copyright ORBIFLY December 2007 - Disclaimer

ORBIFLY MET'MAP TEAM :

Programming & Development : Alexandra Zaïnal
Concept & original design : Baudouin d'Aumeries
Assistance for programming : Marc-Olivier Méhu
Technical & hardware support : Manuel Goepfert

Contact : metmap@orbifly.com




SOURCES & CREDITS :

   NOAA       Earth
Advisory